LSZL Airport Information

Runway Information
Runway 08C Length 2297 ft width 98 ft
Elevation 0 ft Threshold 0 ft Heading 0
Runway 26C Length 2297 ft Width 98 ft
Elevation 0 ft Threshold 0 ft Heading 0
Runway 08L Length 2625 ft width 75 ft
Elevation 650 ft Threshold 0 ft Heading 0
Runway 26R Length 2625 ft Width 75 ft
Elevation 650 ft Threshold 0 ft Heading 0
Airport Frequencies
Airport Navaids
Airport Weather Information & NOTAM
ADDS - METARS form results

(1338 UTC 25 May 2019)
Data provider http://aviationweather.gov/metar/data/
 
METAR text: LSZL 251320Z AUTO 25003KT 200V310 9999NDV NCD 18/14 Q1014 RMK
Conditions at: LSZL (LOCARNO , CH) observed 1320 UTC 25 May 2019
Temperature: 18.0°C (64°F)
Dewpoint: 14.0°C (57°F) [RH = 77%]
Pressure (altimeter): 29.94 inches Hg (1014.0 mb)
Winds: from the WSW (250 degrees) at 3 MPH (3 knots; 1.5 m/s)
Visibility: missing
Ceiling: at least 12,000 feet AGL
Clouds: sky clear below 12,000 feet AGL
Weather: no significant weather observed at this time

METAR text: LSZL 251250Z AUTO VRB02KT 9999NDV FEW048 20/14 Q1014 RMK
Conditions at: LSZL (LOCARNO , CH) observed 1250 UTC 25 May 2019
Temperature: 20.0°C (68°F)
Dewpoint: 14.0°C (57°F) [RH = 68%]
Pressure (altimeter): 29.94 inches Hg (1014.0 mb)
Winds: variable direction winds at 2 MPH (2 knots; 1.0 m/s)
Visibility: missing
Ceiling: at least 12,000 feet AGL
Clouds: few clouds at 4800 feet AGL
Weather: no significant weather observed at this time